Archival Weather

Chicago/Rockford Intl

Rockford, Illinois (KRFD)

Report from: Friday, February 3, 2023 8:54 PM CST
Current time: Tuesday, June 25, 2024 4:38 AM CDT

Current weather – Weather history – Daily summaries
Weather forecast

Temperature-16.1°C (3.0°F)
Wind chill-22.2°C (-8.0°F)
Dew point-23.3°C (-9.9°F)
Winds 5 kts (2.6 m/s, 5.8 mph) South-Southeast (150°)
Visibility10 mi. (16.1 km)
Clouds Ceiling: Broken clouds 22,000 ft. (6,706 m)
Altimeter30.50 in.Hg (1033 mB)
Relative humidity54 %
Density altitude-4,668 ft. (-1,423 m)
Sea-level pressure103.5 kPa (1035 mB, 30.56 in.Hg)
Remarks Automated weather observing station with precipitation discriminator
Pressure falling more quickly
Flight conditions Visual Meteorological Conditions
Raw dataKRFD 040254Z 15005KT 10SM BKN220 M16/M23 A3050 RMK AO2 SLP349 T11611233 58021
An unhandled exception has occurred. See browser dev tools for details. Reload 🗙